Accueil
METAR-TAF:

METAR-TAF

Aéroports :

Aéroport de Gran Canaria

Grande Canarie, Espagne

latitude: 27-56N, longitude: 015-23W, altitude: 23 m

Observation

Le bulletin a été fait il y a 35 minutes, à 07:00 UTC
Vent 19 kt de nord/nord-est
Température 17°C
Humidité 59%
Pression 1025 hPa
Visibilité 10 km ou plus
Nuages fragmentés à une hauteur de 4000 ft

METAR: GCLP 230700Z 03019KT 9999 BKN040 17/09 Q1025 NOSIG

Heure: 07:35 (07:35 UTC)

Prévision

Le bulletin a été fait il y a 5 heures et 35 minutes, à 02:00 UTC
Prévision valable du 23 à 03 UTC au 24 à 03 UTC
Vent 19 kt de nord/nord-est
Visibilité 10 km ou plus
Nuages épars à une hauteur de 3500 ft
Probabilité 30% :
Temporairement
du 23 à 15 UTC au 23 à 21 UTC
bruine

TAF: GCLP 230200Z 2303/2403 02019KT 9999 SCT035 TX20/2314Z TN15/2306Z PROB30 TEMPO 2315/2321 DZ

Observations et prévisions météorologiques de plus de 4000 aéroports (messages METAR et TAF).

Les stations disponibles sont représentées par des disques jaunes et rouges sur la carte.

Passer la souris dessus pour voir le nom de la station.

Cliquer dessus pour voir les observations et prévisions météorologiques.

Pour changer de carte: cliquez sur les boutons verts avec une croix noire pour zoomer, sur le bouton vert avec un tiret pour effectuer un zoom arrière, ou sur les flèches vertes pour les cartes adjacentes.


METAR-TAF: